Time;durP1;ratioP1;P1;durP2;ratioP2;P2;SDS_P1;SDS_P2;PMS_P1;PMS_P2;Temp;Humidity;BMP_temperature;BMP_pressure;BME280_temperature;BME280_humidity;BME280_pressure;Samples;Min_cycle;Max_cycle;Signal;HPM_P1;HPM_P2
2024/01/23 00:01:43;;;;;;;6.37;2.47;;;;;;;6.93;100.00;96836.16;5077476;28;20200;-67
2024/01/23 00:04:10;;;;;;;2.90;1.83;;;;;;;6.64;100.00;96855.50;5076056;28;20206;-67
2024/01/23 00:06:37;;;;;;;2.77;1.73;;;;;;;6.58;100.00;96846.41;5076383;28;20219;-67
2024/01/23 00:09:04;;;;;;;2.93;1.20;;;;;;;6.63;100.00;96838.13;5076429;28;20713;-67
2024/01/23 00:11:31;;;;;;;1.57;1.10;;;;;;;6.49;100.00;96826.28;5076864;28;20207;-67
2024/01/23 00:13:59;;;;;;;1.00;0.90;;;;;;;6.66;100.00;96828.19;5076831;28;20195;-67
2024/01/23 00:16:25;;;;;;;1.70;1.30;;;;;;;6.61;100.00;96826.97;5076796;28;20200;-67
2024/01/23 00:18:52;;;;;;;1.93;1.30;;;;;;;6.48;100.00;96826.41;5075488;28;20593;-67
2024/01/23 00:21:18;;;;;;;2.00;1.40;;;;;;;6.48;100.00;96829.88;5076096;28;20666;-67
2024/01/23 00:23:45;;;;;;;4.43;1.97;;;;;;;6.36;100.00;96825.72;5077887;28;20199;-67
2024/01/23 00:26:11;;;;;;;2.27;1.23;;;;;;;6.38;100.00;96831.66;5075358;28;21230;-67
2024/01/23 00:28:38;;;;;;;2.47;1.03;;;;;;;6.37;100.00;96831.78;5076244;28;20230;-67
2024/01/23 00:31:06;;;;;;;2.00;0.87;;;;;;;6.38;100.00;96836.88;5076762;28;20667;-67
2024/01/23 00:33:33;;;;;;;4.53;1.33;;;;;;;6.39;100.00;96835.06;5076541;28;20212;-67
2024/01/23 00:35:59;;;;;;;3.60;1.37;;;;;;;6.41;100.00;96828.75;5075577;28;20196;-67
2024/01/23 00:38:25;;;;;;;7.47;1.20;;;;;;;6.45;100.00;96824.06;5077118;28;20619;-67
2024/01/23 00:40:51;;;;;;;1.70;0.97;;;;;;;6.46;100.00;96820.50;5076140;28;20203;-67
2024/01/23 00:43:18;;;;;;;6.43;1.40;;;;;;;6.43;100.00;96820.75;5075899;28;20216;-67
2024/01/23 00:45:45;;;;;;;1.17;1.00;;;;;;;6.37;100.00;96827.38;5076034;28;20220;-67
2024/01/23 00:48:13;;;;;;;1.40;0.80;;;;;;;6.43;100.00;96826.81;5075092;28;20224;-67
2024/01/23 00:50:39;;;;;;;1.10;0.80;;;;;;;6.25;100.00;96823.25;5078668;28;20209;-67
2024/01/23 00:53:06;;;;;;;1.17;0.70;;;;;;;6.34;100.00;96819.81;5079976;28;20743;-67
2024/01/23 00:55:32;;;;;;;1.60;1.10;;;;;;;6.39;100.00;96829.84;5080351;28;20219;-67
2024/01/23 00:57:59;;;;;;;1.47;1.20;;;;;;;6.15;100.00;96819.78;5078943;28;20215;-67
2024/01/23 01:00:25;;;;;;;0.60;0.60;;;;;;;6.32;100.00;96834.78;5080016;28;20211;-67
2024/01/23 01:02:52;;;;;;;0.90;0.70;;;;;;;6.39;100.00;96830.69;5079582;28;20199;-67
2024/01/23 01:05:20;;;;;;;1.73;0.60;;;;;;;6.63;100.00;96854.63;5079567;28;20211;-67
2024/01/23 01:07:46;;;;;;;1.57;0.80;;;;;;;6.44;100.00;96856.44;5078909;28;20231;-67
2024/01/23 01:10:13;;;;;;;4.80;0.50;;;;;;;6.46;100.00;96868.44;5079237;28;20582;-67
2024/01/23 01:12:39;;;;;;;2.17;1.03;;;;;;;6.41;100.00;96870.63;5080250;28;20210;-67
2024/01/23 01:15:06;;;;;;;0.83;0.60;;;;;;;6.40;100.00;96865.53;5079640;28;20219;-67
2024/01/23 01:17:33;;;;;;;3.50;0.50;;;;;;;6.39;100.00;96871.72;5078462;28;20223;-67
2024/01/23 01:19:59;;;;;;;4.20;0.90;;;;;;;6.40;100.00;96873.38;5079502;28;20200;-67
2024/01/23 01:22:27;;;;;;;0.60;0.60;;;;;;;6.44;100.00;96867.75;5080006;28;20203;-67
2024/01/23 01:24:54;;;;;;;1.57;0.70;;;;;;;6.24;100.00;96879.16;5078595;28;20216;-67
2024/01/23 01:27:20;;;;;;;0.87;0.63;;;;;;;6.07;100.00;96887.66;5079040;28;20231;-67
2024/01/23 01:29:47;;;;;;;4.90;1.00;;;;;;;6.06;100.00;96878.16;5078726;28;20203;-67
2024/01/23 01:32:14;;;;;;;2.33;0.80;;;;;;;6.04;100.00;96874.81;5078956;28;20232;-67
2024/01/23 01:34:40;;;;;;;2.10;0.63;;;;;;;6.08;100.00;96878.84;5079713;28;20331;-67
2024/01/23 01:37:07;;;;;;;2.60;0.70;;;;;;;6.07;100.00;96877.19;5079147;28;20575;-67
2024/01/23 01:39:34;;;;;;;1.23;0.60;;;;;;;6.13;100.00;96881.88;5079233;28;20204;-67
2024/01/23 01:42:01;;;;;;;3.50;0.73;;;;;;;5.99;100.00;96876.19;5078540;28;20669;-67
2024/01/23 01:44:29;;;;;;;1.37;0.87;;;;;;;5.97;100.00;96875.53;5079150;28;20200;-67
2024/01/23 01:46:55;;;;;;;1.20;0.63;;;;;;;5.91;100.00;96870.00;5078496;28;20223;-67
2024/01/23 01:49:22;;;;;;;2.20;0.90;;;;;;;5.87;100.00;96869.44;5077936;28;20214;-67
2024/01/23 01:51:49;;;;;;;1.63;1.00;;;;;;;5.98;100.00;96886.81;5078971;28;20195;-67
2024/01/23 01:54:16;;;;;;;1.00;0.80;;;;;;;6.03;100.00;96876.75;5078788;28;20211;-67
2024/01/23 01:56:44;;;;;;;6.43;0.80;;;;;;;6.04;100.00;96873.19;5078034;28;20198;-67
2024/01/23 01:59:12;;;;;;;0.80;0.80;;;;;;;5.82;100.00;96865.56;5078169;28;20230;-67
2024/01/23 02:01:39;;;;;;;3.43;1.23;;;;;;;5.83;100.00;96869.81;5079217;28;20994;-67
2024/01/23 02:04:04;;;;;;;3.33;0.80;;;;;;;5.83;100.00;96875.03;5078017;28;20200;-67
2024/01/23 02:06:35;;;;;;;6.10;0.80;;;;;;;5.91;100.00;96886.50;5078045;28;20231;-67
2024/01/23 02:09:02;;;;;;;1.63;0.73;;;;;;;6.11;100.00;96899.50;5078202;28;20314;-67
2024/01/23 02:11:29;;;;;;;3.90;0.70;;;;;;;5.98;100.00;96898.06;5078765;28;20296;-67
2024/01/23 02:13:57;;;;;;;1.00;0.50;;;;;;;6.22;100.00;96902.03;5078199;28;21037;-67
2024/01/23 02:16:23;;;;;;;3.13;0.67;;;;;;;5.98;100.00;96905.13;5077908;28;20814;-67
2024/01/23 02:18:50;;;;;;;1.13;1.03;;;;;;;6.16;100.00;96913.03;5077516;28;20233;-67
2024/01/23 02:21:16;;;;;;;0.90;0.70;;;;;;;6.10;100.00;96902.25;5078187;28;20219;-67
2024/01/23 02:23:44;;;;;;;1.27;0.60;;;;;;;6.19;100.00;96907.50;5078816;28;20210;-67
2024/01/23 02:26:14;;;;;;;2.07;0.70;;;;;;;6.49;100.00;96907.44;5077455;28;20584;-67
2024/01/23 02:28:41;;;;;;;0.93;0.63;;;;;;;6.31;100.00;96911.69;5078157;28;20231;-67
2024/01/23 02:31:07;;;;;;;0.60;0.60;;;;;;;6.22;100.00;96922.97;5078100;28;20207;-67
2024/01/23 02:33:34;;;;;;;2.27;1.03;;;;;;;6.31;100.00;96916.06;5078641;28;20203;-67
2024/01/23 02:36:00;;;;;;;6.97;1.00;;;;;;;6.30;100.00;96930.13;5077225;28;20689;-67
2024/01/23 02:38:27;;;;;;;0.60;0.47;;;;;;;6.43;100.00;96926.28;5077955;28;20242;-67
2024/01/23 02:40:56;;;;;;;3.47;0.43;;;;;;;6.64;100.00;96921.75;5077910;28;20211;-67
2024/01/23 02:43:22;;;;;;;0.43;0.40;;;;;;;6.45;100.00;96929.59;5077815;28;20214;-67
2024/01/23 02:45:49;;;;;;;0.33;0.27;;;;;;;6.40;100.00;96937.06;5078397;28;20204;-67
2024/01/23 02:48:15;;;;;;;3.30;0.77;;;;;;;6.34;100.00;96955.91;5076764;28;20234;-67
2024/01/23 02:50:42;;;;;;;0.60;0.60;;;;;;;6.30;100.00;96951.06;5077676;28;20218;-67
2024/01/23 02:53:08;;;;;;;1.30;0.70;;;;;;;6.20;100.00;96950.22;5077281;28;20196;-67
2024/01/23 02:55:35;;;;;;;0.60;0.60;;;;;;;6.25;100.00;96953.25;5078781;28;20215;-67
2024/01/23 02:58:03;;;;;;;0.40;0.40;;;;;;;6.46;100.00;96954.81;5077002;28;20318;-67
2024/01/23 03:00:29;;;;;;;0.40;0.40;;;;;;;6.25;100.00;96954.09;5077470;28;20214;-67
2024/01/23 03:02:56;;;;;;;0.93;0.50;;;;;;;6.13;100.00;96957.75;5077374;28;20222;-67
2024/01/23 03:05:22;;;;;;;4.37;0.67;;;;;;;6.28;100.00;96968.69;5077735;28;20218;-67
2024/01/23 03:07:50;;;;;;;0.40;0.40;;;;;;;6.35;100.00;96968.03;5076961;28;20235;-67
2024/01/23 03:10:17;;;;;;;1.03;0.40;;;;;;;6.13;100.00;96968.22;5077311;28;20199;-67
2024/01/23 03:12:44;;;;;;;2.63;0.60;;;;;;;6.07;100.00;96971.38;5077670;28;20203;-67
2024/01/23 03:15:12;;;;;;;1.30;0.93;;;;;;;6.19;100.00;96969.50;5077193;28;20215;-67
2024/01/23 03:17:39;;;;;;;0.33;0.33;;;;;;;6.16;100.00;96964.50;5076228;28;20219;-67
2024/01/23 03:20:07;;;;;;;1.93;0.60;;;;;;;6.14;100.00;96967.25;5076780;28;20203;-67
2024/01/23 03:22:33;;;;;;;0.50;0.50;;;;;;;6.11;100.00;96964.09;5077491;28;20207;-67
2024/01/23 03:25:00;;;;;;;2.63;0.63;;;;;;;6.09;100.00;96956.34;5077367;28;20195;-67
2024/01/23 03:27:27;;;;;;;0.47;0.40;;;;;;;5.90;100.00;96963.31;5076344;28;21460;-67
2024/01/23 03:29:53;;;;;;;2.70;0.50;;;;;;;6.03;100.00;96963.09;5076705;28;20210;-67
2024/01/23 03:32:21;;;;;;;0.80;0.60;;;;;;;5.90;100.00;96968.53;5077027;28;20207;-67
2024/01/23 03:34:49;;;;;;;0.77;0.57;;;;;;;5.91;100.00;96977.25;5077694;28;20218;-67
2024/01/23 03:37:16;;;;;;;0.83;0.50;;;;;;;5.80;100.00;96985.16;5076201;28;20588;-67
2024/01/23 03:39:42;;;;;;;0.40;0.40;;;;;;;5.73;100.00;96970.91;5076980;28;20213;-68
2024/01/23 03:42:09;;;;;;;1.37;0.63;;;;;;;5.81;100.00;96994.66;5076599;28;20700;-67
2024/01/23 03:44:35;;;;;;;0.53;0.53;;;;;;;5.83;100.00;96990.97;5075830;28;20211;-67
2024/01/23 03:47:02;;;;;;;2.70;0.77;;;;;;;5.83;100.00;96997.97;5075409;28;20229;-67
2024/01/23 03:49:30;;;;;;;0.67;0.63;;;;;;;5.99;100.00;96993.09;5076439;28;20210;-67
2024/01/23 03:51:57;;;;;;;2.37;0.97;;;;;;;5.90;100.00;97009.56;5077343;28;20285;-67
2024/01/23 03:54:23;;;;;;;3.60;0.60;;;;;;;5.83;100.00;97013.66;5076261;28;20611;-67
2024/01/23 03:56:49;;;;;;;3.20;1.13;;;;;;;5.91;100.00;97011.25;5076709;28;20199;-67
2024/01/23 03:59:16;;;;;;;1.50;0.60;;;;;;;5.94;100.00;97010.97;5076665;28;20209;-67
2024/01/23 04:01:42;;;;;;;3.90;0.67;;;;;;;5.98;100.00;97014.97;5076204;28;20215;-67
2024/01/23 04:04:09;;;;;;;2.03;0.70;;;;;;;6.00;100.00;97024.34;5076741;28;20204;-67
2024/01/23 04:06:37;;;;;;;0.70;0.60;;;;;;;6.10;100.00;97023.44;5078075;28;20238;-67
2024/01/23 04:09:03;;;;;;;1.87;1.17;;;;;;;6.06;100.00;97014.19;5075743;28;20219;-67
2024/01/23 04:11:30;;;;;;;1.83;1.10;;;;;;;5.83;100.00;97009.28;5076275;28;20230;-67
2024/01/23 04:13:57;;;;;;;0.80;0.80;;;;;;;5.89;100.00;97013.13;5077304;28;20199;-67
2024/01/23 04:16:23;;;;;;;0.80;0.60;;;;;;;5.90;100.00;97020.03;5076022;28;20712;-67
2024/01/23 04:18:54;;;;;;;0.43;0.40;;;;;;;5.96;100.00;96988.94;5075829;28;20230;-67
2024/01/23 04:21:20;;;;;;;4.00;0.93;;;;;;;5.91;100.00;96995.53;5075528;28;20210;-67
2024/01/23 04:23:48;;;;;;;0.33;0.33;;;;;;;6.20;100.00;96992.91;5076753;28;20207;-67
2024/01/23 04:26:18;;;;;;;1.27;0.80;;;;;;;6.09;100.00;97002.63;5080027;28;20211;-68
2024/01/23 04:28:44;;;;;;;0.93;0.50;;;;;;;6.09;100.00;97007.88;5080796;28;20319;-67
2024/01/23 04:31:11;;;;;;;3.93;0.83;;;;;;;6.07;100.00;96999.31;5079773;28;20204;-67
2024/01/23 04:33:37;;;;;;;2.37;1.20;;;;;;;6.03;100.00;97007.56;5080636;28;20726;-67
2024/01/23 04:36:05;;;;;;;1.43;0.70;;;;;;;6.02;100.00;97016.38;5080030;28;20204;-67
2024/01/23 04:38:31;;;;;;;2.20;1.30;;;;;;;5.95;100.00;96996.94;5079541;28;20231;-67
2024/01/23 04:40:59;;;;;;;1.03;0.67;;;;;;;5.97;100.00;97002.84;5080327;28;20200;-67
2024/01/23 04:43:25;;;;;;;0.90;0.90;;;;;;;5.68;100.00;97009.69;5080000;28;20218;-67
2024/01/23 04:45:52;;;;;;;1.00;0.77;;;;;;;5.78;100.00;97010.59;5080142;28;20206;-67
2024/01/23 04:48:18;;;;;;;1.33;0.60;;;;;;;5.79;100.00;97027.94;5079161;28;20220;-67
2024/01/23 04:50:44;;;;;;;3.03;0.80;;;;;;;5.69;100.00;97038.31;5080649;28;20210;-67
2024/01/23 04:53:11;;;;;;;1.83;0.83;;;;;;;5.75;100.00;97036.97;5079221;28;20203;-67
2024/01/23 04:55:37;;;;;;;1.10;1.07;;;;;;;5.72;100.00;97042.47;5080133;28;20211;-67
2024/01/23 04:58:05;;;;;;;1.00;0.90;;;;;;;5.87;100.00;97051.66;5079242;28;20216;-67
2024/01/23 05:00:32;;;;;;;3.70;0.77;;;;;;;5.82;100.00;97048.63;5079803;28;20210;-67
2024/01/23 05:02:58;;;;;;;0.63;0.40;;;;;;;5.66;100.00;97058.66;5079509;28;20815;-67
2024/01/23 05:05:25;;;;;;;8.50;0.93;;;;;;;5.81;100.00;97057.44;5079540;28;20673;-67
2024/01/23 05:07:52;;;;;;;1.03;0.83;;;;;;;5.98;100.00;97048.97;5079418;28;20255;-67
2024/01/23 05:10:18;;;;;;;0.73;0.70;;;;;;;6.00;100.00;97073.25;5079490;28;20218;-67
2024/01/23 05:12:44;;;;;;;1.17;0.73;;;;;;;6.16;100.00;97080.47;5080488;28;20203;-67
2024/01/23 05:15:12;;;;;;;1.20;0.80;;;;;;;6.19;100.00;97072.38;5079282;28;20200;-67
2024/01/23 05:17:38;;;;;;;0.63;0.53;;;;;;;6.00;100.00;97091.56;5078241;28;20227;-67
2024/01/23 05:20:05;;;;;;;0.93;0.83;;;;;;;6.05;100.00;97098.03;5079298;28;20208;-67
2024/01/23 05:22:32;;;;;;;1.13;0.80;;;;;;;5.98;100.00;97117.00;5079697;28;20207;-67
2024/01/23 05:24:59;;;;;;;0.43;0.40;;;;;;;5.92;100.00;97117.50;5079755;28;20218;-67
2024/01/23 05:27:26;;;;;;;4.97;1.30;;;;;;;5.95;100.00;97118.06;5078541;28;20250;-67
2024/01/23 05:29:53;;;;;;;1.60;1.00;;;;;;;6.07;100.00;97128.34;5079847;28;20265;-67
2024/01/23 05:32:20;;;;;;;2.67;1.53;;;;;;;6.15;100.00;97136.38;5079117;28;20203;-67
2024/01/23 05:34:47;;;;;;;2.93;1.00;;;;;;;6.18;100.00;97146.59;5078838;28;20202;-67
2024/01/23 05:37:13;;;;;;;3.57;1.27;;;;;;;6.00;100.00;97141.25;5078446;28;20226;-67
2024/01/23 05:39:40;;;;;;;0.60;0.60;;;;;;;5.78;100.00;97130.88;5079039;28;20204;-67
2024/01/23 05:42:07;;;;;;;2.03;1.10;;;;;;;5.84;100.00;97149.53;5078728;28;20211;-67
2024/01/23 05:44:33;;;;;;;1.73;0.60;;;;;;;5.70;100.00;97149.81;5079141;28;20210;-67
2024/01/23 05:47:00;;;;;;;4.43;0.90;;;;;;;5.92;100.00;97160.19;5078199;28;21024;-67
2024/01/23 05:49:27;;;;;;;1.27;0.50;;;;;;;6.08;100.00;97166.66;5077828;28;20947;-67
2024/01/23 05:51:54;;;;;;;6.93;1.60;;;;;;;5.92;100.00;97159.34;5079359;28;20200;-67
2024/01/23 05:54:20;;;;;;;1.73;0.90;;;;;;;5.98;100.00;97149.19;5078596;28;20211;-67
2024/01/23 05:56:47;;;;;;;1.97;1.03;;;;;;;5.83;100.00;97160.97;5078320;28;20207;-67
2024/01/23 05:59:13;;;;;;;0.50;0.50;;;;;;;5.79;100.00;97164.78;5078187;28;20234;-67
2024/01/23 06:01:40;;;;;;;4.53;0.90;;;;;;;5.74;100.00;97172.13;5078718;28;20214;-67
2024/01/23 06:04:08;;;;;;;2.20;0.57;;;;;;;6.14;100.00;97199.31;5077604;28;20208;-68
2024/01/23 06:06:39;;;;;;;2.60;0.90;;;;;;;6.24;100.00;97203.66;5078019;28;20208;-68
2024/01/23 06:09:07;;;;;;;1.53;0.73;;;;;;;6.09;100.00;97204.91;5078206;28;20228;-67
2024/01/23 06:11:33;;;;;;;5.50;1.53;;;;;;;5.92;100.00;97214.28;5078339;28;20211;-67
2024/01/23 06:14:00;;;;;;;4.10;1.67;;;;;;;5.91;100.00;97220.50;5078485;28;20220;-68
2024/01/23 06:16:26;;;;;;;3.93;0.60;;;;;;;5.99;100.00;97239.00;5077514;28;20204;-68
2024/01/23 06:18:53;;;;;;;6.47;1.43;;;;;;;5.96;100.00;97234.00;5077373;28;20222;-67
2024/01/23 06:21:19;;;;;;;4.60;1.03;;;;;;;5.94;100.00;97241.97;5077278;28;20207;-67
2024/01/23 06:23:47;;;;;;;1.37;0.60;;;;;;;5.92;100.00;97246.50;5079049;28;20269;-67
2024/01/23 06:26:14;;;;;;;2.37;0.50;;;;;;;5.79;100.00;97245.84;5077573;28;20208;-67
2024/01/23 06:28:40;;;;;;;1.03;0.70;;;;;;;5.88;100.00;97246.88;5077773;28;20235;-67
2024/01/23 06:31:06;;;;;;;0.73;0.60;;;;;;;5.78;100.00;97251.19;5078982;28;20203;-67
2024/01/23 06:33:33;;;;;;;0.53;0.40;;;;;;;5.83;100.00;97265.56;5078274;28;20200;-67
2024/01/23 06:35:59;;;;;;;3.40;0.40;;;;;;;5.73;100.00;97258.56;5077816;28;21025;-66
2024/01/23 06:38:27;;;;;;;0.97;0.40;;;;;;;5.70;100.00;97264.00;5077398;28;20744;-68
2024/01/23 06:40:54;;;;;;;0.50;0.50;;;;;;;5.93;100.00;97274.34;5078833;28;20296;-67
2024/01/23 06:43:21;;;;;;;1.80;1.23;;;;;;;5.82;100.00;97299.69;5077647;28;20217;-67
2024/01/23 06:45:47;;;;;;;1.80;0.57;;;;;;;5.75;100.00;97280.16;5078112;28;20208;-68
2024/01/23 06:48:14;;;;;;;0.40;0.40;;;;;;;5.85;100.00;97296.81;5075983;28;20234;-68
2024/01/23 06:50:41;;;;;;;0.40;0.40;;;;;;;5.75;100.00;97291.47;5077651;28;20265;-68
2024/01/23 06:53:07;;;;;;;6.83;0.97;;;;;;;5.71;100.00;97290.03;5077632;28;20208;-67
2024/01/23 06:55:34;;;;;;;3.23;1.20;;;;;;;5.76;100.00;97293.16;5077888;28;20211;-67
2024/01/23 06:58:01;;;;;;;0.33;0.33;;;;;;;5.72;100.00;97298.72;5077294;28;20223;-67
2024/01/23 07:00:28;;;;;;;2.63;0.60;;;;;;;5.84;100.00;97303.00;5076797;28;20653;-68
2024/01/23 07:02:55;;;;;;;0.30;0.30;;;;;;;5.48;100.00;97305.88;5077931;28;20203;-68
2024/01/23 07:05:21;;;;;;;10.37;0.67;;;;;;;5.57;100.00;97318.22;5077419;28;20207;-68
2024/01/23 07:07:48;;;;;;;0.67;0.67;;;;;;;5.45;100.00;97337.50;5077113;28;20599;-67
2024/01/23 07:10:14;;;;;;;4.60;1.03;;;;;;;5.45;100.00;97343.56;5077067;28;20582;-67
2024/01/23 07:12:40;;;;;;;0.50;0.50;;;;;;;5.53;100.00;97345.56;5078019;28;20453;-67
2024/01/23 07:15:09;;;;;;;0.60;0.60;;;;;;;5.75;100.00;97345.53;5077543;28;20877;-68
2024/01/23 07:17:36;;;;;;;2.20;0.50;;;;;;;5.51;100.00;97355.31;5076403;28;20807;-68
2024/01/23 07:20:04;;;;;;;1.40;0.53;;;;;;;5.59;100.00;97366.03;5077160;28;20210;-68
2024/01/23 07:22:31;;;;;;;1.43;0.73;;;;;;;5.55;100.00;97381.09;5077447;28;20211;-68
2024/01/23 07:25:01;;;;;;;1.37;0.60;;;;;;;5.62;100.00;97371.00;5077446;28;20203;-68
2024/01/23 07:27:28;;;;;;;0.40;0.40;;;;;;;5.52;100.00;97388.34;5076663;28;20224;-68
2024/01/23 07:29:54;;;;;;;0.50;0.50;;;;;;;5.58;100.00;97386.09;5077642;28;20207;-68
2024/01/23 07:32:22;;;;;;;0.43;0.43;;;;;;;5.67;100.00;97387.16;5076940;28;20741;-67
2024/01/23 07:34:49;;;;;;;0.40;0.40;;;;;;;5.52;100.00;97401.41;5077749;28;20215;-68
2024/01/23 07:37:15;;;;;;;1.67;0.70;;;;;;;5.47;100.00;97409.63;5076930;28;20231;-68
2024/01/23 07:39:41;;;;;;;5.97;0.47;;;;;;;5.06;100.00;97408.47;5077032;28;20204;-68
2024/01/23 07:42:08;;;;;;;0.47;0.47;;;;;;;5.37;100.00;97413.03;5077019;28;20211;-68
2024/01/23 07:44:39;;;;;;;0.97;0.70;;;;;;;5.44;100.00;97422.91;5077265;28;20276;-68
2024/01/23 07:47:05;;;;;;;0.40;0.40;;;;;;;5.36;100.00;97432.31;5076339;28;20199;-68
2024/01/23 07:49:33;;;;;;;2.97;0.50;;;;;;;5.42;100.00;97426.59;5076541;28;20231;-68
2024/01/23 07:51:59;;;;;;;0.60;0.50;;;;;;;5.49;100.00;97422.56;5076863;28;20203;-68
2024/01/23 07:54:26;;;;;;;0.50;0.50;;;;;;;5.30;100.00;97421.50;5076788;28;20221;-68
2024/01/23 07:59:31;;;;;;;2.67;0.97;;;;;;;5.43;100.00;97435.28;4991149;28;21131;-67
2024/01/23 08:01:57;;;;;;;1.17;0.90;;;;;;;5.40;100.00;97443.34;4991579;28;20207;-67
2024/01/23 08:04:24;;;;;;;0.70;0.57;;;;;;;5.37;100.00;97454.03;4991691;28;20225;-68
2024/01/23 08:06:50;;;;;;;1.60;0.77;;;;;;;5.39;100.00;97455.59;4991106;28;20210;-68
2024/01/23 08:09:17;;;;;;;0.70;0.50;;;;;;;5.38;100.00;97456.53;4990561;28;20232;-67
2024/01/23 08:11:43;;;;;;;0.83;0.60;;;;;;;5.29;100.00;97472.91;4991127;28;20206;-67
2024/01/23 08:14:10;;;;;;;2.20;0.70;;;;;;;5.39;100.00;97475.69;4991971;28;20202;-68
2024/01/23 08:16:38;;;;;;;1.80;0.80;;;;;;;5.53;100.00;97465.81;4989550;28;20261;-67
2024/01/23 08:19:04;;;;;;;0.53;0.40;;;;;;;5.53;100.00;97471.06;4989940;28;20230;-68
2024/01/23 08:21:31;;;;;;;2.13;0.93;;;;;;;5.62;100.00;97478.19;4991015;28;20207;-67
2024/01/23 08:23:57;;;;;;;0.73;0.50;;;;;;;5.63;100.00;97466.78;4991232;28;20213;-68
2024/01/23 08:26:24;;;;;;;0.50;0.50;;;;;;;5.51;100.00;97470.31;4990875;28;20210;-68
2024/01/23 08:28:50;;;;;;;6.03;0.83;;;;;;;5.56;100.00;97473.44;4991291;28;20218;-68
2024/01/23 08:31:17;;;;;;;0.77;0.50;;;;;;;5.48;100.00;97486.25;4990606;28;20300;-68
2024/01/23 08:33:45;;;;;;;2.23;0.53;;;;;;;5.57;100.00;97490.78;4990418;28;20210;-68
2024/01/23 08:36:12;;;;;;;1.50;1.10;;;;;;;5.18;100.00;97491.19;4991693;28;20214;-68
2024/01/23 08:38:38;;;;;;;1.93;0.73;;;;;;;5.43;100.00;97489.22;4990413;28;20245;-68
2024/01/23 08:41:05;;;;;;;3.27;1.23;;;;;;;5.48;100.00;97488.88;4990942;28;20225;-68
2024/01/23 08:43:31;;;;;;;5.60;0.97;;;;;;;5.73;100.00;97483.47;4990258;28;20226;-68
2024/01/23 08:45:57;;;;;;;0.60;0.50;;;;;;;5.69;100.00;97488.06;4991138;28;20203;-68
2024/01/23 08:48:25;;;;;;;1.73;0.63;;;;;;;5.59;100.00;97481.06;4989497;28;20238;-68
2024/01/23 08:50:52;;;;;;;1.60;0.80;;;;;;;5.79;100.00;97477.75;4990824;28;20696;-68
2024/01/23 08:53:19;;;;;;;7.93;1.20;;;;;;;5.71;100.00;97485.34;4990830;28;20232;-68
2024/01/23 08:55:47;;;;;;;3.80;1.20;;;;;;;5.84;100.00;97486.09;4990447;28;20211;-68
2024/01/23 08:58:16;;;;;;;2.60;0.90;;;;;;;6.15;100.00;97484.44;4989536;28;20233;-68
2024/01/23 09:00:43;;;;;;;4.27;1.30;;;;;;;5.89;100.00;97494.41;4990530;28;20218;-68
2024/01/23 09:03:09;;;;;;;2.73;1.23;;;;;;;6.06;100.00;97500.84;4990739;28;20210;-68
2024/01/23 09:05:35;;;;;;;2.37;1.17;;;;;;;6.18;100.00;97507.72;4990103;28;20297;-68
2024/01/23 09:08:04;;;;;;;1.17;0.80;;;;;;;6.45;100.00;97509.97;4990521;28;20227;-68
2024/01/23 09:10:30;;;;;;;4.03;1.20;;;;;;;6.20;100.00;97520.72;4979056;28;20202;-68
2024/01/23 09:12:57;;;;;;;2.07;0.93;;;;;;;6.23;100.00;97523.91;4977165;28;20218;-68
2024/01/23 09:15:23;;;;;;;6.43;1.20;;;;;;;6.30;100.00;97522.50;4977606;28;20203;-68
2024/01/23 09:17:50;;;;;;;1.77;0.90;;;;;;;6.29;100.00;97533.09;4976373;28;20234;-68
2024/01/23 09:20:17;;;;;;;1.03;0.60;;;;;;;6.23;100.00;97534.38;4977067;28;20207;-68
2024/01/23 09:22:44;;;;;;;1.07;0.70;;;;;;;6.24;100.00;97543.91;4977065;28;20211;-68
2024/01/23 09:25:11;;;;;;;1.73;0.87;;;;;;;6.37;100.00;97555.06;4977614;28;20199;-67
2024/01/23 09:27:38;;;;;;;1.63;1.00;;;;;;;6.18;100.00;97554.84;4976138;28;20223;-68
2024/01/23 09:30:06;;;;;;;2.00;0.80;;;;;;;6.29;100.00;97562.69;4977342;28;20215;-67
2024/01/23 09:32:32;;;;;;;0.83;0.60;;;;;;;6.23;100.00;97568.41;4977215;28;20214;-67
2024/01/23 09:34:58;;;;;;;0.40;0.40;;;;;;;6.17;100.00;97574.13;4976739;28;20226;-67
2024/01/23 09:37:25;;;;;;;2.50;0.90;;;;;;;6.05;100.00;97569.81;4979011;28;20230;-67
2024/01/23 09:39:52;;;;;;;4.73;1.03;;;;;;;6.05;100.00;97567.19;4976346;28;20596;-68
2024/01/23 09:42:23;;;;;;;1.13;0.50;;;;;;;6.43;100.00;97570.31;4976393;28;20243;-68
2024/01/23 09:44:51;;;;;;;2.20;0.67;;;;;;;6.30;100.00;97574.84;4976320;28;20206;-68
2024/01/23 09:47:18;;;;;;;2.97;1.00;;;;;;;6.26;100.00;97586.50;4976856;28;20223;-68
2024/01/23 09:49:44;;;;;;;2.03;1.00;;;;;;;5.92;100.00;97588.34;4976417;28;20213;-68
2024/01/23 09:52:12;;;;;;;1.50;0.77;;;;;;;6.12;100.00;97588.50;4976231;28;20960;-68
2024/01/23 09:54:38;;;;;;;1.07;0.90;;;;;;;6.27;100.00;97592.56;4977115;28;20203;-68
2024/01/23 09:57:05;;;;;;;1.40;0.50;;;;;;;6.17;100.00;97600.31;4976101;28;20214;-68
2024/01/23 09:59:33;;;;;;;1.83;0.70;;;;;;;6.40;100.00;97596.75;4975880;28;20241;-68
2024/01/23 10:01:59;;;;;;;3.23;0.90;;;;;;;6.25;100.00;97603.16;4976323;28;20589;-68
2024/01/23 10:04:28;;;;;;;4.20;1.00;;;;;;;6.44;100.00;97602.56;4976916;28;20214;-68
2024/01/23 10:06:55;;;;;;;1.50;0.70;;;;;;;6.67;100.00;97605.91;4976105;28;20221;-68
2024/01/23 10:09:21;;;;;;;1.17;0.70;;;;;;;6.70;100.00;97592.53;4976347;28;20200;-67
2024/01/23 10:11:48;;;;;;;1.47;0.80;;;;;;;7.06;100.00;97591.41;4976380;28;20218;-68
2024/01/23 10:14:15;;;;;;;1.17;1.07;;;;;;;7.05;100.00;97595.00;4976696;28;20211;-68
2024/01/23 10:16:43;;;;;;;2.97;1.07;;;;;;;7.21;100.00;97593.63;4975284;28;20207;-68
2024/01/23 10:19:10;;;;;;;0.73;0.70;;;;;;;7.01;100.00;97599.63;4975563;28;20235;-68
2024/01/23 10:21:37;;;;;;;1.20;0.83;;;;;;;6.98;100.00;97593.81;4975026;28;20207;-68
2024/01/23 10:24:04;;;;;;;0.97;0.70;;;;;;;7.11;100.00;97594.50;4976174;28;20217;-67
2024/01/23 10:26:33;;;;;;;3.13;1.47;;;;;;;7.44;100.00;97588.19;4976196;28;20298;-67
2024/01/23 10:29:01;;;;;;;2.30;1.17;;;;;;;7.26;100.00;97594.09;4976295;28;20280;-67
2024/01/23 10:31:28;;;;;;;5.37;2.57;;;;;;;7.19;100.00;97586.84;4976585;28;20233;-67
2024/01/23 10:33:56;;;;;;;4.50;2.03;;;;;;;7.31;100.00;97587.53;4976257;28;20211;-68
2024/01/23 10:36:23;;;;;;;2.67;1.07;;;;;;;7.14;100.00;97583.75;4975644;28;20551;-67
2024/01/23 10:38:50;;;;;;;3.60;1.37;;;;;;;7.37;100.00;97592.28;4975715;28;20687;-68
2024/01/23 10:41:18;;;;;;;4.40;1.50;;;;;;;7.48;100.00;97586.16;4976576;28;20199;-67
2024/01/23 10:43:47;;;;;;;11.53;2.00;;;;;;;7.55;100.00;97575.03;4976059;28;20203;-68
2024/01/23 10:46:14;;;;;;;10.57;1.80;;;;;;;7.59;100.00;97580.88;4975073;28;20203;-67
2024/01/23 10:48:40;;;;;;;4.27;1.13;;;;;;;7.58;100.00;97569.53;4975049;28;20227;-68
2024/01/23 10:51:18;;;;;;;3.30;0.80;;;;;;;7.72;100.00;97561.34;4976177;28;20681;-67
2024/01/23 10:53:57;;;;;;;3.37;0.90;;;;;;;7.90;100.00;97565.06;4976254;28;20636;-67
2024/01/23 10:56:24;;;;;;;1.27;0.90;;;;;;;7.85;100.00;97561.16;4975517;28;20214;-68
2024/01/23 10:59:00;;;;;;;3.70;1.20;;;;;;;8.39;100.00;97557.31;4976291;28;20717;-68
2024/01/23 11:01:28;;;;;;;1.50;1.10;;;;;;;8.44;100.00;97556.00;4975700;28;20588;-67
2024/01/23 11:03:54;;;;;;;1.83;1.13;;;;;;;8.51;100.00;97542.19;4975473;28;20215;-68
2024/01/23 11:06:26;;;;;;;3.00;1.67;;;;;;;8.57;100.00;97546.91;4974647;28;21023;-68
2024/01/23 11:09:01;;;;;;;1.47;0.67;;;;;;;8.64;100.00;97555.94;4976019;28;20227;-68
2024/01/23 11:11:37;;;;;;;1.87;0.90;;;;;;;8.62;100.00;97538.63;4976016;28;20237;-68
2024/01/23 11:14:12;;;;;;;1.77;0.70;;;;;;;8.68;100.00;97553.84;4976242;28;20207;-68
2024/01/23 11:16:38;;;;;;;1.93;0.60;;;;;;;8.67;100.00;97544.31;4974791;28;20665;-68
2024/01/23 11:19:06;;;;;;;5.47;0.90;;;;;;;8.30;100.00;97535.34;4974983;28;20241;-67
2024/01/23 11:21:34;;;;;;;1.33;0.57;;;;;;;8.34;100.00;97539.34;4975636;28;20200;-68
2024/01/23 11:24:02;;;;;;;0.50;0.50;;;;;;;8.32;100.00;97524.69;4976003;28;20579;-67
2024/01/23 11:26:29;;;;;;;0.60;0.43;;;;;;;8.36;100.00;97536.59;4974902;28;20234;-68
2024/01/23 11:29:00;;;;;;;4.13;0.60;;;;;;;8.79;100.00;97530.91;4975234;28;20223;-67
2024/01/23 11:31:28;;;;;;;1.70;1.33;;;;;;;8.47;100.00;97537.31;4975134;28;20314;-67
2024/01/23 11:34:38;;;;;;;0.50;0.50;;;;;;;8.96;100.00;97527.66;4975468;28;20234;-68
2024/01/23 11:37:45;;;;;;;6.37;0.80;;;;;;;9.09;100.00;97529.03;4975053;28;20211;-68